AirNav   TITAN Aviation Fuels
 
 1721 users online  

MO69 Baptist Medical Center Heliport
Kansas City, Missouri, USA

GOING TO KANSAS CITY?


FAA INFORMATION EFFECTIVE 17 JUNE 2021

Location

FAA Identifier: MO69
Lat/Long: 39-00-26.9400N 094-34-41.5500W
39-00.449000N 094-34.692500W
39.0074833,-94.5782083
(estimated)
Elevation: 170 ft. / 52 m (estimated)
Variation: 05E (1985)
Time zone: UTC -5 (UTC -6 during Standard Time)
Zip code: 64131

Heliport Operations

Heliport use: Private use, MEDICAL USE.
Activation date: 08/1989
Control tower: no
ARTCC: KANSAS CITY CENTER
FSS: COLUMBIA FLIGHT SERVICE STATION
Attendance: CONTINUOUS
Wind indicator: lighted
Segmented circle: no
Lights: SS-SR

Heliport Communications

WX ASOS at MKC (7 nm N): PHONE 816-329-2843
WX ASOS at LXT (10 nm E): 124.175 (816-347-9807)
WX ASOS at OJC (12 nm SW): PHONE 913-780-6969
WX ASOS at IXD (18 nm SW): 135.325 (913-780-6987)
WX ASOS at MCI (19 nm N): PHONE 816-329-2808

Nearby radio navigation aids

VOR radial/distance  VOR name  Freq  Var
MCIr151/18.2KANSAS CITY VORTAC113.2505E
ANXr249/21.6NAPOLEON VORTAC114.0007E

Heliport Services

Runway Information

Helipad H1

Dimensions: 60 x 60 ft. / 18 x 18 m
Surface: concrete
Runway edge lights: PERI
Latitude: 39-00.449000N
Longitude: 094-34.692500W
Elevation: 170.0 ft.
Traffic pattern: leftleft

Heliport Ownership and Management from official FAA records

Ownership: Privately-owned
Owner: BAPTIST MEDICAL CENTER
6601 ROCKHILL ROAD
KANSAS CITY, MO 64131
Phone 816-276-7000
Manager: ED STANTON
6601 ROCKHILL ROAD
KANSAS CITY, MO 64131
Phone 816-276-7071

Additional Remarks

A52-H1 70' BLDG 155' SE; 200' TREES 50' SW; 50' PLINES 20' N.
FOR CD CTC KANSAS CITY APCH AT 816-329-2710.

Instrument Procedures

There are no published instrument procedures at MO69.

Some nearby airports with instrument procedures:

KMKC - Charles B Wheeler Downtown Airport (7 nm N)
KLXT - Lee's Summit Municipal Airport (10 nm E)
KOJC - Johnson County Executive Airport (12 nm SW)
3GV - East Kansas City Airport (17 nm E)
KIXD - New Century AirCenter Airport (18 nm SW)
KMCI - Kansas City International Airport (19 nm N)
 
Loc | Ops | Rwys | IFR | FBO | Links
Com | Nav | Svcs | Stats | Notes
Area around MO69 (Baptist Medical Center Heliport)
 
Road maps at: MapQuest Bing Google
 
Aerial photo
No photo
 
Sectional chart

 
Airport distance calculator
Flying to Baptist Medical Center Heliport? Find the distance to fly.

From to MO69

Sunrise and sunset
Times for 24-Jun-2021
 Local
(UTC-5)
 Zulu
(UTC)
Morning civil twilight05:2210:22
Sunrise05:5510:55
Sunset20:4701:47
Evening civil twilight21:1902:19

Current date and time
Zulu (UTC)  24-Jun-2021 20:04:55
Local (UTC-5)  24-Jun-2021 15:04:55
 
METAR
KMKC 
7nm N 
241954Z 15007KT 110V180 10SM CLR 29/23 A2983 RMK AO2 SLP092 T02940233
KLXT 
10nm E 
241953Z AUTO 15010KT 10SM SCT019 BKN025 27/24 A2985 RMK AO2 SLP098 T02720239
KOJC 
12nm SW 
241953Z 17010G18KT 10SM BKN021 BKN029 28/23 A2985 RMK AO2 LTG DSNT SE-SW SLP095 T02780233
KIXD 
18nm SW 
241953Z 15011G17KT 10SM BKN023 28/23 A2985 RMK AO2 LTG DSNT SE AND S SLP094 T02830228
KMCI 
19nm N 
241953Z 15012KT 9SM FEW023 SCT130 OVC250 29/23 A2983 RMK AO2 SLP088 T02890233
TAF
KMKC 
7nm N 
241738Z 2418/2518 14012G21KT P6SM SCT016 BKN021 FM241900 18013G21KT P6SM SCT030 BKN060 FM250000 18011KT P6SM VCTS SCT030 BKN060CB TEMPO 2501/2504 2SM TSRA BR OVC025CB FM250500 16013KT P6SM VCTS BKN040CB FM251000 20008KT P6SM BKN070
KIXD 
18nm SW 
241738Z 2418/2518 14008G17KT P6SM BKN015 FM241900 18013G21KT P6SM SCT030 BKN060 FM250000 18011KT P6SM VCTS SCT030 BKN060CB TEMPO 2501/2504 2SM TSRA BR OVC025CB FM250500 16013KT P6SM VCTS BKN040CB FM251000 20008KT P6SM BKN070
KMCI 
19nm N 
241738Z 2418/2518 14013KT P6SM FEW011 SCT018 OVC130 FM241900 18013G21KT P6SM SCT030 BKN060 FM250000 18011KT P6SM VCTS SCT030 BKN060CB TEMPO 2501/2504 2SM TSRA BR OVC025CB FM250500 16013KT P6SM VCTS BKN040CB FM251000 20008KT P6SM BKN070
NOTAMs
Click for the latest NOTAMs
NOTAMs are issued by the DoD/FAA and will open in a separate window not controlled by AirNav.

 

 
 

Would you like to see your business listed on this page?

 If your business provides an interesting product or service to pilots, flight crews, aircraft, or users of the Baptist Medical Center Heliport, you should consider listing it here.  To start the listing process, click on the button below
 
Add a business
 

Other Pages about Baptist Medical Center Heliport

Update a link
 
Copyright © AirNav, LLC. All rights reserved. Privacy Policy  Contact